Time;durP1;ratioP1;P1;durP2;ratioP2;P2;SDS_P1;SDS_P2;PMS_P1;PMS_P2;Temp;Humidity;BMP_temperature;BMP_pressure;BME280_temperature;BME280_humidity;BME280_pressure;Samples;Min_cycle;Max_cycle;Signal;HPM_P1;HPM_P2
2023/09/25 00:00:49;;;;;;;4.30;3.77;;;16.30;95.80;;;;;;5024329;28;20192;-76
2023/09/25 00:03:15;;;;;;;4.80;3.90;;;16.30;95.90;;;;;;5021392;28;20463;-76
2023/09/25 00:05:41;;;;;;;4.20;3.57;;;16.30;96.00;;;;;;5023580;28;20423;-77
2023/09/25 00:08:07;;;;;;;4.17;3.70;;;16.30;96.10;;;;;;5021551;28;20781;-76
2023/09/25 00:10:33;;;;;;;7.03;3.70;;;16.30;96.10;;;;;;5023116;28;20558;-76
2023/09/25 00:13:00;;;;;;;7.23;3.77;;;16.20;96.10;;;;;;5015616;28;20613;-83
2023/09/25 00:15:26;;;;;;;3.80;3.03;;;16.20;96.30;;;;;;5036415;28;20415;-83
2023/09/25 00:17:53;;;;;;;5.60;3.60;;;16.20;96.60;;;;;;5036251;28;20482;-81
2023/09/25 00:20:24;;;;;;;5.43;3.47;;;16.20;96.60;;;;;;5032673;28;20176;-80
2023/09/25 00:22:50;;;;;;;4.53;3.90;;;16.10;96.70;;;;;;5031820;28;20451;-85
2023/09/25 00:25:19;;;;;;;5.80;3.60;;;16.10;96.70;;;;;;5051303;28;20461;-78
2023/09/25 00:27:45;;;;;;;6.50;4.40;;;16.10;96.80;;;;;;5047358;28;20558;-79
2023/09/25 00:30:11;;;;;;;5.87;3.40;;;16.10;96.90;;;;;;5028180;28;20455;-81
2023/09/25 00:32:37;;;;;;;5.97;3.27;;;16.10;97.10;;;;;;5017671;28;20196;-81
2023/09/25 00:35:05;;;;;;;4.17;3.20;;;16.00;97.10;;;;;;5024857;28;20431;-81
2023/09/25 00:37:32;;;;;;;7.77;3.80;;;16.00;97.30;;;;;;5004134;28;20230;-81
2023/09/25 00:40:07;;;;;;;4.20;3.80;;;16.00;97.60;;;;;;5028467;28;20420;-83
2023/09/25 00:42:32;;;;;;;4.90;2.97;;;16.00;97.60;;;;;;5035736;28;20428;-83
2023/09/25 00:44:58;;;;;;;4.93;3.33;;;16.00;98.10;;;;;;5024658;28;20472;-84
2023/09/25 00:47:23;;;;;;;5.63;4.13;;;15.90;98.30;;;;;;5023282;28;20684;-83
2023/09/25 00:49:49;;;;;;;4.00;3.60;;;15.90;98.40;;;;;;5024952;28;20237;-83
2023/09/25 00:52:15;;;;;;;4.70;3.33;;;15.90;98.50;;;;;;5028204;28;20753;-82
2023/09/25 00:54:41;;;;;;;7.00;3.83;;;15.90;99.00;;;;;;5027126;28;20208;-82
2023/09/25 00:57:07;;;;;;;4.70;3.70;;;15.90;98.70;;;;;;5023811;28;20179;-83
2023/09/25 00:59:33;;;;;;;5.70;3.80;;;15.90;98.80;;;;;;5020804;28;20423;-83
2023/09/25 01:01:58;;;;;;;5.17;3.77;;;15.80;98.90;;;;;;5023408;28;20538;-83
2023/09/25 01:04:24;;;;;;;4.90;3.43;;;15.80;99.00;;;;;;5023544;28;20215;-83
2023/09/25 01:06:51;;;;;;;3.30;2.87;;;15.80;99.60;;;;;;5019857;28;20275;-84
2023/09/25 01:09:16;;;;;;;4.43;3.20;;;15.80;99.60;;;;;;5018278;28;20462;-84
2023/09/25 01:11:42;;;;;;;7.90;3.00;;;15.70;99.80;;;;;;5025823;28;20415;-82
2023/09/25 01:14:09;;;;;;;5.30;3.67;;;15.70;99.90;;;;;;5023637;28;20211;-83
2023/09/25 01:16:36;;;;;;;9.70;3.80;;;15.70;99.90;;;;;;5019145;28;20296;-84
2023/09/25 01:19:06;;;;;;;5.30;3.47;;;15.60;99.90;;;;;;5022247;28;20810;-83
2023/09/25 01:21:35;;;;;;;4.33;3.27;;;15.60;99.90;;;;;;5006510;28;20941;-82
2023/09/25 01:24:02;;;;;;;5.70;3.67;;;15.60;99.90;;;;;;5021393;28;20845;-82
2023/09/25 01:26:28;;;;;;;4.70;3.30;;;15.60;99.90;;;;;;5034361;28;20430;-83
2023/09/25 01:28:54;;;;;;;7.10;3.50;;;15.50;99.90;;;;;;5022439;28;20434;-83
2023/09/25 01:31:19;;;;;;;5.00;3.70;;;15.50;99.90;;;;;;5020290;28;20473;-83
2023/09/25 01:33:45;;;;;;;5.30;3.37;;;15.50;99.90;;;;;;5023740;28;20315;-82
2023/09/25 01:36:11;;;;;;;4.73;3.43;;;15.50;99.90;;;;;;5008340;28;20192;-82
2023/09/25 01:38:37;;;;;;;7.77;3.43;;;15.50;99.90;;;;;;5023521;28;20185;-84
2023/09/25 01:41:03;;;;;;;5.53;3.87;;;15.40;99.90;;;;;;5021765;28;20435;-84
2023/09/25 01:43:29;;;;;;;4.77;4.00;;;15.40;99.90;;;;;;5020654;28;20891;-83
2023/09/25 01:45:55;;;;;;;4.70;3.40;;;15.40;99.90;;;;;;5023943;28;20419;-83
2023/09/25 01:48:20;;;;;;;4.33;3.50;;;15.30;99.90;;;;;;5007759;28;20185;-83
2023/09/25 01:50:48;;;;;;;6.00;4.20;;;15.30;99.90;;;;;;5019068;28;20176;-84
2023/09/25 01:53:14;;;;;;;7.50;3.70;;;15.30;99.90;;;;;;5017679;28;20201;-82
2023/09/25 01:55:42;;;;;;;4.20;3.50;;;15.30;99.90;;;;;;5007280;28;20439;-80
2023/09/25 01:58:08;;;;;;;4.13;3.17;;;15.20;99.90;;;;;;5031660;28;20443;-83
2023/09/25 02:00:34;;;;;;;4.90;3.70;;;15.20;99.90;;;;;;5020856;28;20439;-84
2023/09/25 02:03:00;;;;;;;4.13;3.10;;;15.20;99.90;;;;;;5032197;28;20471;-85
2023/09/25 02:05:25;;;;;;;5.87;3.53;;;15.20;99.90;;;;;;5036554;28;20443;-83
2023/09/25 02:07:51;;;;;;;4.80;3.80;;;15.20;99.90;;;;;;5012168;28;20192;-84
2023/09/25 02:10:17;;;;;;;5.73;4.20;;;15.20;99.90;;;;;;5022044;28;20247;-83
2023/09/25 02:12:43;;;;;;;4.50;3.27;;;15.10;99.90;;;;;;5021518;28;20642;-83
2023/09/25 02:15:10;;;;;;;4.67;3.20;;;15.10;99.90;;;;;;5021646;28;20196;-80
2023/09/25 02:17:36;;;;;;;3.70;3.10;;;15.10;99.90;;;;;;5023197;28;20911;-82
2023/09/25 02:20:22;;;;;;;8.53;3.83;;;15.10;99.90;;;;;;5021702;28;20430;-81
2023/09/25 02:22:48;;;;;;;4.23;3.27;;;15.10;99.90;;;;;;5016180;28;20463;-82
2023/09/25 02:25:14;;;;;;;4.53;3.43;;;15.10;99.90;;;;;;5039728;28;20467;-83
2023/09/25 02:27:40;;;;;;;5.23;3.47;;;15.10;99.90;;;;;;5036364;28;20427;-84
2023/09/25 02:30:10;;;;;;;5.40;3.37;;;15.00;99.90;;;;;;5020538;28;20497;-85
2023/09/25 02:32:41;;;;;;;4.43;3.37;;;15.00;99.90;;;;;;5022924;28;20200;-84
2023/09/25 02:35:07;;;;;;;4.93;3.20;;;15.00;99.90;;;;;;5025366;28;20513;-83
2023/09/25 02:37:33;;;;;;;4.10;3.30;;;15.00;99.90;;;;;;5018346;28;20515;-83
2023/09/25 02:39:59;;;;;;;5.20;3.63;;;15.00;99.90;;;;;;5006313;28;20470;-83
2023/09/25 02:42:25;;;;;;;5.27;3.60;;;14.90;99.90;;;;;;5020360;28;20878;-80
2023/09/25 02:44:51;;;;;;;4.40;3.20;;;14.90;99.90;;;;;;5026771;28;20511;-79
2023/09/25 02:47:17;;;;;;;8.50;3.80;;;14.90;99.90;;;;;;5037816;28;20261;-83
2023/09/25 02:49:43;;;;;;;6.83;3.30;;;14.90;99.90;;;;;;4991417;28;20558;-83
2023/09/25 02:52:09;;;;;;;4.03;3.30;;;14.90;99.90;;;;;;5021904;28;20445;-83
2023/09/25 02:54:34;;;;;;;4.37;3.40;;;14.80;99.90;;;;;;5041836;28;20208;-84
2023/09/25 02:57:00;;;;;;;5.40;3.40;;;14.80;99.90;;;;;;5024633;28;20196;-82
2023/09/25 02:59:25;;;;;;;3.93;3.00;;;14.70;99.90;;;;;;5028359;28;20246;-85
2023/09/25 03:01:51;;;;;;;4.80;3.20;;;14.70;99.90;;;;;;5025077;28;20681;-85
2023/09/25 03:04:16;;;;;;;4.07;2.97;;;14.70;99.90;;;;;;5023876;28;20205;-84
2023/09/25 03:06:42;;;;;;;6.83;3.50;;;14.70;99.90;;;;;;5028329;28;20738;-80
2023/09/25 03:09:07;;;;;;;6.43;3.60;;;14.70;99.90;;;;;;5020683;28;20185;-79
2023/09/25 03:11:33;;;;;;;6.33;3.07;;;14.70;99.90;;;;;;5022000;28;20189;-79
2023/09/25 03:13:59;;;;;;;6.40;2.93;;;14.60;99.90;;;;;;5026286;28;20205;-81
2023/09/25 03:16:24;;;;;;;5.90;3.37;;;14.60;99.90;;;;;;5024022;28;20262;-79
2023/09/25 03:18:50;;;;;;;4.50;3.10;;;14.60;99.90;;;;;;5020363;28;20196;-81
2023/09/25 03:21:16;;;;;;;10.00;3.50;;;14.60;99.90;;;;;;5023393;28;20228;-80
2023/09/25 03:23:42;;;;;;;4.20;3.37;;;14.60;99.90;;;;;;5025733;28;20209;-79
2023/09/25 03:26:17;;;;;;;4.13;3.37;;;14.60;99.90;;;;;;5022707;28;20465;-80
2023/09/25 03:28:44;;;;;;;4.37;3.03;;;14.60;99.90;;;;;;5033909;28;20179;-81
2023/09/25 03:31:11;;;;;;;6.70;3.70;;;14.60;99.90;;;;;;5028070;28;20528;-82
2023/09/25 03:33:37;;;;;;;5.40;3.03;;;14.50;99.90;;;;;;5034362;28;20478;-82
2023/09/25 03:36:04;;;;;;;5.17;3.43;;;14.50;99.90;;;;;;5031311;28;20454;-77
2023/09/25 03:38:30;;;;;;;6.00;3.37;;;14.50;99.90;;;;;;5006857;28;20514;-77
2023/09/25 03:40:55;;;;;;;5.73;3.40;;;14.50;99.90;;;;;;5037163;28;20447;-78
2023/09/25 03:43:21;;;;;;;5.60;3.40;;;14.50;99.90;;;;;;5010953;28;20493;-77
2023/09/25 03:45:47;;;;;;;5.90;4.10;;;14.40;99.90;;;;;;5007037;28;20211;-78
2023/09/25 03:48:13;;;;;;;5.17;3.60;;;14.50;99.90;;;;;;5023193;28;20207;-76
2023/09/25 03:50:39;;;;;;;4.20;3.30;;;14.40;99.90;;;;;;5032995;28;20458;-77
2023/09/25 03:53:04;;;;;;;5.47;3.47;;;14.40;99.90;;;;;;5020306;28;20447;-77
2023/09/25 03:55:30;;;;;;;4.30;3.43;;;14.40;99.90;;;;;;4998527;28;20181;-78
2023/09/25 03:57:56;;;;;;;5.23;3.73;;;14.40;99.90;;;;;;5022109;28;20182;-78
2023/09/25 04:00:22;;;;;;;4.43;3.10;;;14.40;99.90;;;;;;5019171;28;20560;-75
2023/09/25 04:02:48;;;;;;;4.73;2.93;;;14.40;99.90;;;;;;5020058;28;20344;-77
2023/09/25 04:05:14;;;;;;;5.00;3.50;;;14.40;99.90;;;;;;5022588;28;20550;-76
2023/09/25 04:07:39;;;;;;;4.80;3.30;;;14.30;99.90;;;;;;5021681;28;20181;-76
2023/09/25 04:10:07;;;;;;;5.97;3.93;;;14.40;99.90;;;;;;5018162;28;20227;-75
2023/09/25 04:12:34;;;;;;;7.63;3.43;;;14.30;99.90;;;;;;5017820;28;20346;-79
2023/09/25 04:15:00;;;;;;;4.60;3.50;;;14.30;99.90;;;;;;5017796;28;20435;-76
2023/09/25 04:17:27;;;;;;;5.20;3.70;;;14.30;99.90;;;;;;5019138;28;20522;-76
2023/09/25 04:19:52;;;;;;;4.70;3.40;;;14.30;99.90;;;;;;5018482;28;20494;-75
2023/09/25 04:22:19;;;;;;;6.83;3.63;;;14.30;99.90;;;;;;5017529;28;20461;-76
2023/09/25 04:24:45;;;;;;;5.33;3.40;;;14.20;99.90;;;;;;5019854;28;20220;-76
2023/09/25 04:27:11;;;;;;;9.93;3.50;;;14.20;99.90;;;;;;5022355;28;20459;-75
2023/09/25 04:29:38;;;;;;;5.53;3.30;;;14.20;99.90;;;;;;5020912;28;20427;-76
2023/09/25 04:32:04;;;;;;;3.87;3.27;;;14.20;99.90;;;;;;5019513;28;20192;-76
2023/09/25 04:34:30;;;;;;;4.73;3.37;;;14.20;99.90;;;;;;4989615;28;20822;-77
2023/09/25 04:36:58;;;;;;;5.07;3.20;;;14.20;99.90;;;;;;5016538;28;20442;-74
2023/09/25 04:39:24;;;;;;;4.40;3.43;;;14.20;99.90;;;;;;5018356;28;20661;-75
2023/09/25 04:41:50;;;;;;;4.80;3.20;;;14.10;99.90;;;;;;5022213;28;20445;-76
2023/09/25 04:44:16;;;;;;;4.80;3.30;;;14.10;99.90;;;;;;5020506;28;20258;-76
2023/09/25 04:46:41;;;;;;;5.20;3.90;;;14.20;99.90;;;;;;5019481;28;20443;-75
2023/09/25 04:49:08;;;;;;;4.47;3.67;;;14.10;99.90;;;;;;5020307;28;20188;-76
2023/09/25 04:51:34;;;;;;;4.03;3.30;;;14.10;99.90;;;;;;5004484;28;20184;-76
2023/09/25 04:54:00;;;;;;;4.20;3.07;;;14.10;99.90;;;;;;4999694;28;20952;-76
2023/09/25 04:56:27;;;;;;;4.73;3.20;;;14.10;99.90;;;;;;5021983;28;20427;-76
2023/09/25 04:58:53;;;;;;;4.20;3.40;;;14.10;99.90;;;;;;5021875;28;20506;-75
2023/09/25 05:01:19;;;;;;;5.07;3.90;;;14.10;99.90;;;;;;5017487;28;20439;-76
2023/09/25 05:03:45;;;;;;;5.47;3.90;;;14.10;99.90;;;;;;5017420;28;20475;-75
2023/09/25 05:06:13;;;;;;;4.00;3.60;;;14.10;99.90;;;;;;5021952;28;20964;-75
2023/09/25 05:08:39;;;;;;;5.30;3.57;;;14.00;99.90;;;;;;5004408;28;20176;-76
2023/09/25 05:11:05;;;;;;;6.27;3.67;;;14.10;99.90;;;;;;5014377;28;20443;-77
2023/09/25 05:13:32;;;;;;;4.57;3.63;;;14.00;99.90;;;;;;5019621;28;20208;-77
2023/09/25 05:15:58;;;;;;;5.40;3.40;;;14.00;99.90;;;;;;5019353;28;20419;-76
2023/09/25 05:18:23;;;;;;;5.60;3.67;;;14.00;99.90;;;;;;5019496;28;20411;-76
2023/09/25 05:20:49;;;;;;;4.70;3.40;;;14.00;99.90;;;;;;5002939;28;20472;-76
2023/09/25 05:23:18;;;;;;;5.87;3.90;;;14.00;99.90;;;;;;5019334;28;20232;-72
2023/09/25 05:25:44;;;;;;;6.50;4.50;;;14.00;99.90;;;;;;5018381;28;20678;-74
2023/09/25 05:28:10;;;;;;;7.20;4.13;;;14.00;99.90;;;;;;5019109;28;20416;-74
2023/09/25 05:30:35;;;;;;;3.87;3.20;;;14.00;99.90;;;;;;5009424;28;20275;-74
2023/09/25 05:33:01;;;;;;;5.37;3.53;;;14.00;99.90;;;;;;5007108;28;20263;-75
2023/09/25 05:35:27;;;;;;;4.93;3.40;;;14.00;99.90;;;;;;5010017;28;20188;-75
2023/09/25 05:37:52;;;;;;;6.77;3.53;;;13.90;99.90;;;;;;5019965;28;20296;-75
2023/09/25 05:40:18;;;;;;;6.63;3.80;;;14.00;99.90;;;;;;5033778;28;20181;-76
2023/09/25 05:42:45;;;;;;;3.90;3.17;;;14.00;99.90;;;;;;4998115;28;20177;-76
2023/09/25 05:45:12;;;;;;;5.80;3.73;;;13.90;99.90;;;;;;5019984;28;20239;-75
2023/09/25 05:47:39;;;;;;;5.33;3.50;;;14.00;99.90;;;;;;5020808;28;21215;-75
2023/09/25 05:50:08;;;;;;;5.30;3.57;;;14.00;99.90;;;;;;5033722;28;20445;-75
2023/09/25 05:52:35;;;;;;;5.37;3.53;;;14.00;99.90;;;;;;5009670;28;20457;-74
2023/09/25 05:55:01;;;;;;;5.30;3.83;;;14.00;99.90;;;;;;5033165;28;20435;-76
2023/09/25 05:57:27;;;;;;;5.37;4.20;;;14.00;99.90;;;;;;5041144;28;20446;-75
2023/09/25 05:59:52;;;;;;;5.60;3.80;;;13.90;99.90;;;;;;5018207;28;20428;-77
2023/09/25 06:02:18;;;;;;;5.50;3.83;;;14.00;99.90;;;;;;5038843;28;20553;-77
2023/09/25 06:04:44;;;;;;;5.73;4.80;;;14.00;99.90;;;;;;5032066;28;20211;-77
2023/09/25 06:07:10;;;;;;;6.40;4.20;;;14.00;99.90;;;;;;5039373;28;20215;-76
2023/09/25 06:09:35;;;;;;;7.47;3.80;;;14.00;99.90;;;;;;5020612;28;20480;-74
2023/09/25 06:12:01;;;;;;;8.47;4.67;;;14.00;99.90;;;;;;5015291;28;20659;-75
2023/09/25 06:14:30;;;;;;;5.80;4.40;;;14.00;99.90;;;;;;5015372;28;20242;-73
2023/09/25 06:16:57;;;;;;;5.60;3.83;;;14.00;99.90;;;;;;5017812;28;20238;-73
2023/09/25 06:19:26;;;;;;;6.10;4.03;;;14.00;99.90;;;;;;5017968;28;20442;-74
2023/09/25 06:21:52;;;;;;;4.37;3.57;;;14.00;99.90;;;;;;5020087;28;20427;-74
2023/09/25 06:24:18;;;;;;;8.00;4.37;;;14.00;99.90;;;;;;5007229;28;20474;-74
2023/09/25 06:26:46;;;;;;;9.37;4.40;;;14.00;99.90;;;;;;5016846;28;20638;-74
2023/09/25 06:29:13;;;;;;;5.97;3.90;;;14.00;99.90;;;;;;5013339;28;20242;-74
2023/09/25 06:31:39;;;;;;;6.90;3.73;;;14.10;99.90;;;;;;5014314;28;20443;-74
2023/09/25 06:34:07;;;;;;;6.87;3.40;;;14.00;99.90;;;;;;5004096;28;20533;-75
2023/09/25 06:36:35;;;;;;;6.03;3.90;;;14.00;99.90;;;;;;5014126;28;20910;-74
2023/09/25 06:39:02;;;;;;;4.60;3.70;;;14.10;99.90;;;;;;5000912;28;20436;-75
2023/09/25 06:41:27;;;;;;;6.60;3.60;;;14.10;99.90;;;;;;5004458;28;20427;-75
2023/09/25 06:43:54;;;;;;;5.67;4.20;;;14.20;99.90;;;;;;5018287;28;21053;-75
2023/09/25 06:46:20;;;;;;;4.30;3.47;;;14.20;99.90;;;;;;5008299;28;20185;-76
2023/09/25 06:48:50;;;;;;;4.50;3.67;;;14.20;99.90;;;;;;5015854;28;20423;-76
2023/09/25 06:51:16;;;;;;;6.47;4.30;;;14.20;99.90;;;;;;5020760;28;20276;-77
2023/09/25 06:53:43;;;;;;;7.03;3.93;;;14.30;99.90;;;;;;4996495;28;20455;-76
2023/09/25 06:56:08;;;;;;;5.80;3.93;;;14.30;99.90;;;;;;5008966;28;20454;-76
2023/09/25 06:58:34;;;;;;;6.80;3.40;;;14.30;99.90;;;;;;5005380;28;21149;-75
2023/09/25 07:00:59;;;;;;;5.57;3.57;;;14.40;99.90;;;;;;5014411;28;20201;-76
2023/09/25 07:03:26;;;;;;;5.33;4.00;;;14.40;99.90;;;;;;5011269;28;21023;-78
2023/09/25 07:05:51;;;;;;;4.57;3.53;;;14.40;99.90;;;;;;5012870;28;20177;-76
2023/09/25 07:08:18;;;;;;;4.50;3.20;;;14.50;99.90;;;;;;5008957;28;20444;-75
2023/09/25 07:10:45;;;;;;;6.37;3.40;;;14.50;99.90;;;;;;5020145;28;20185;-76
2023/09/25 07:13:12;;;;;;;4.10;3.10;;;14.50;99.90;;;;;;5013038;28;20483;-76
2023/09/25 07:15:39;;;;;;;6.67;3.50;;;14.60;99.90;;;;;;5011224;28;20469;-76
2023/09/25 07:18:04;;;;;;;5.60;3.50;;;14.60;99.90;;;;;;5014932;28;20884;-76
2023/09/25 07:20:30;;;;;;;6.77;3.60;;;14.60;99.90;;;;;;5015375;28;20505;-75
2023/09/25 07:22:55;;;;;;;5.37;3.70;;;14.70;99.90;;;;;;5003148;28;20207;-76
2023/09/25 07:25:21;;;;;;;4.87;3.63;;;14.70;99.90;;;;;;5022710;28;20208;-76
2023/09/25 07:27:47;;;;;;;5.60;3.50;;;14.80;99.90;;;;;;5010601;28;20173;-76
2023/09/25 07:30:14;;;;;;;5.27;3.53;;;14.80;99.90;;;;;;5021906;28;20191;-78
2023/09/25 07:32:42;;;;;;;12.00;9.90;;;14.80;99.90;;;;;;5016709;28;20196;-75
2023/09/25 07:35:09;;;;;;;5.60;3.90;;;14.90;99.90;;;;;;5016707;28;20517;-76
2023/09/25 07:37:41;;;;;;;6.00;4.17;;;14.90;99.90;;;;;;5018554;28;20925;-75
2023/09/25 07:40:11;;;;;;;5.57;3.67;;;15.00;99.90;;;;;;5017665;28;20494;-75
2023/09/25 07:42:41;;;;;;;4.67;3.83;;;15.00;99.90;;;;;;5025338;28;20430;-75
2023/09/25 07:45:11;;;;;;;4.37;3.40;;;15.10;99.90;;;;;;5008411;28;20832;-75
2023/09/25 07:47:40;;;;;;;5.53;3.63;;;15.10;99.90;;;;;;5021510;28;20534;-76
2023/09/25 07:50:10;;;;;;;5.10;3.30;;;15.20;99.90;;;;;;5025848;28;20521;-75
2023/09/25 07:52:38;;;;;;;4.57;3.97;;;15.20;99.90;;;;;;5020349;28;20497;-77
2023/09/25 07:55:07;;;;;;;4.70;3.50;;;15.30;99.90;;;;;;5003090;28;20426;-77
2023/09/25 07:57:35;;;;;;;5.33;3.53;;;15.30;99.90;;;;;;5020388;28;20435;-76
2023/09/25 08:00:10;;;;;;;4.70;3.73;;;15.30;99.90;;;;;;5008488;28;20422;-76
2023/09/25 08:02:39;;;;;;;4.90;3.83;;;15.40;99.90;;;;;;5020080;28;20427;-76
2023/09/25 08:05:06;;;;;;;4.00;3.30;;;15.50;99.90;;;;;;5029634;28;20462;-77
2023/09/25 08:07:32;;;;;;;5.03;3.10;;;15.50;99.90;;;;;;5015997;28;21129;-76
2023/09/25 08:09:59;;;;;;;5.63;3.73;;;15.60;99.90;;;;;;5016895;28;20439;-77
2023/09/25 08:12:25;;;;;;;6.27;4.07;;;15.60;99.90;;;;;;5021906;28;20192;-77
2023/09/25 08:14:50;;;;;;;4.47;3.80;;;15.70;99.90;;;;;;5002776;28;20455;-77
2023/09/25 08:17:16;;;;;;;5.47;3.70;;;15.80;99.90;;;;;;5018916;28;20231;-76
2023/09/25 08:19:42;;;;;;;4.40;3.47;;;15.80;99.90;;;;;;5016739;28;20192;-76
2023/09/25 08:22:08;;;;;;;6.23;3.60;;;15.80;99.90;;;;;;5019117;28;20185;-76
2023/09/25 08:24:33;;;;;;;6.60;3.50;;;15.90;99.90;;;;;;4999138;28;20534;-76
2023/09/25 08:26:59;;;;;;;6.40;3.90;;;16.00;99.90;;;;;;5019070;28;20219;-77
2023/09/25 08:29:25;;;;;;;11.13;3.90;;;16.00;99.90;;;;;;5018672;28;20540;-76
2023/09/25 08:31:51;;;;;;;5.07;3.50;;;16.10;99.90;;;;;;5020910;28;20511;-76
2023/09/25 08:34:17;;;;;;;4.67;3.13;;;16.20;99.90;;;;;;5028609;28;20245;-77
2023/09/25 08:36:42;;;;;;;6.87;3.80;;;16.20;99.90;;;;;;5042932;28;20471;-77
2023/09/25 08:39:10;;;;;;;4.30;3.20;;;16.30;99.90;;;;;;5025911;28;20196;-77
2023/09/25 08:41:36;;;;;;;5.47;2.83;;;16.30;99.90;;;;;;5005572;28;20188;-78
2023/09/25 08:44:02;;;;;;;6.60;3.77;;;16.40;99.90;;;;;;5007662;28;20902;-77
2023/09/25 08:46:28;;;;;;;7.40;5.67;;;16.40;99.90;;;;;;5021189;28;20478;-78
2023/09/25 08:48:56;;;;;;;10.90;6.70;;;16.50;99.90;;;;;;5016003;28;20184;-77
2023/09/25 08:51:24;;;;;;;6.97;3.60;;;16.60;99.90;;;;;;5018366;28;20442;-77
2023/09/25 08:53:51;;;;;;;7.40;4.03;;;16.60;99.90;;;;;;5019235;28;20455;-78
2023/09/25 08:56:18;;;;;;;4.93;3.80;;;16.70;99.90;;;;;;5022230;28;20784;-76
2023/09/25 08:58:45;;;;;;;7.17;6.10;;;16.70;99.90;;;;;;5014538;28;20438;-76
2023/09/25 09:01:11;;;;;;;9.40;6.23;;;16.80;99.90;;;;;;5003414;28;20431;-75
2023/09/25 09:03:37;;;;;;;11.87;9.27;;;16.90;99.90;;;;;;5019081;28;20483;-75
2023/09/25 09:06:03;;;;;;;7.70;5.80;;;16.90;99.90;;;;;;5005313;28;20185;-76
2023/09/25 09:08:30;;;;;;;4.67;3.57;;;17.00;99.90;;;;;;5016894;28;20168;-75
2023/09/25 09:10:55;;;;;;;4.40;3.60;;;17.00;99.90;;;;;;5018007;28;20423;-76
2023/09/25 09:13:22;;;;;;;6.30;5.03;;;17.20;99.90;;;;;;5019951;28;20532;-76
2023/09/25 09:15:49;;;;;;;6.77;4.40;;;17.20;99.90;;;;;;5007682;28;20177;-77
2023/09/25 09:18:19;;;;;;;6.10;3.80;;;17.30;99.90;;;;;;5032267;28;20933;-76
2023/09/25 09:20:44;;;;;;;7.27;3.97;;;17.30;99.90;;;;;;5019146;28;20455;-77
2023/09/25 09:23:10;;;;;;;6.67;5.07;;;17.40;99.90;;;;;;5021075;28;20978;-75
2023/09/25 09:25:36;;;;;;;5.20;3.70;;;17.40;99.90;;;;;;5019700;28;20189;-75
2023/09/25 09:28:05;;;;;;;6.77;3.73;;;17.40;99.90;;;;;;5001710;28;20184;-75
2023/09/25 09:30:31;;;;;;;5.70;3.80;;;17.50;99.90;;;;;;5013717;28;20173;-76
2023/09/25 09:32:57;;;;;;;6.00;3.67;;;17.50;99.90;;;;;;5014915;28;20466;-76
2023/09/25 09:35:25;;;;;;;9.70;3.40;;;17.70;99.90;;;;;;5017294;28;20195;-75
2023/09/25 09:37:57;;;;;;;6.77;4.10;;;17.70;99.90;;;;;;5019124;28;20422;-75
2023/09/25 09:40:25;;;;;;;6.07;3.37;;;17.80;99.90;;;;;;5034095;28;20967;-75
2023/09/25 09:42:51;;;;;;;6.03;3.53;;;17.80;99.90;;;;;;4991975;28;21526;-76
2023/09/25 09:45:18;;;;;;;4.03;3.03;;;17.90;99.90;;;;;;5013498;28;20470;-76
2023/09/25 09:47:46;;;;;;;8.00;3.37;;;18.00;99.90;;;;;;5014205;28;20407;-75
2023/09/25 09:50:13;;;;;;;6.10;3.37;;;18.10;99.90;;;;;;5016409;28;20415;-75
2023/09/25 09:52:39;;;;;;;7.40;3.60;;;18.10;99.90;;;;;;5014436;28;20522;-75
2023/09/25 09:55:07;;;;;;;3.37;2.80;;;18.20;99.90;;;;;;5019581;28;20510;-75
2023/09/25 09:57:34;;;;;;;4.60;3.40;;;18.20;99.90;;;;;;5013958;28;20652;-75
2023/09/25 09:59:59;;;;;;;4.00;3.00;;;18.30;99.90;;;;;;5035793;28;20410;-75
2023/09/25 10:02:28;;;;;;;4.10;3.40;;;18.40;99.90;;;;;;5010930;28;20419;-75
2023/09/25 10:04:55;;;;;;;4.47;3.03;;;18.40;99.90;;;;;;5021501;28;20240;-77
2023/09/25 10:07:21;;;;;;;6.10;3.80;;;18.50;99.90;;;;;;5016776;28;20466;-75
2023/09/25 10:09:56;;;;;;;6.03;3.60;;;18.50;99.90;;;;;;5017831;28;20466;-75
2023/09/25 10:12:56;;;;;;;5.47;3.90;;;18.60;99.90;;;;;;5026560;28;20181;-75
2023/09/25 10:15:25;;;;;;;5.07;3.73;;;18.70;99.90;;;;;;5003924;28;20488;-75
2023/09/25 10:17:52;;;;;;;6.07;3.87;;;18.80;99.90;;;;;;5016617;28;20438;-76
2023/09/25 10:20:40;;;;;;;5.73;3.73;;;18.80;99.90;;;;;;5022249;28;20502;-75
2023/09/25 10:23:05;;;;;;;4.60;3.77;;;18.80;99.90;;;;;;5000218;28;20480;-76
2023/09/25 10:25:52;;;;;;;4.77;3.00;;;18.90;99.90;;;;;;5018871;28;20471;-76
2023/09/25 10:28:25;;;;;;;8.10;4.00;;;19.00;99.90;;;;;;5034814;28;20184;-75
2023/09/25 10:30:51;;;;;;;5.53;3.33;;;19.00;99.90;;;;;;5020885;28;20441;-75
2023/09/25 10:33:18;;;;;;;4.20;3.50;;;19.10;99.90;;;;;;5013589;28;20459;-76
2023/09/25 10:35:49;;;;;;;4.40;2.90;;;19.10;99.90;;;;;;5000428;28;20411;-75
2023/09/25 10:38:19;;;;;;;5.70;3.87;;;19.20;99.90;;;;;;5015470;28;20450;-76
2023/09/25 10:40:50;;;;;;;6.50;5.90;;;19.30;99.90;;;;;;5025092;28;20454;-77
2023/09/25 10:43:20;;;;;;;3.50;2.97;;;19.40;99.90;;;;;;5018932;28;20530;-78
2023/09/25 10:45:47;;;;;;;4.80;2.93;;;19.40;99.90;;;;;;5017619;28;20418;-79
2023/09/25 10:48:13;;;;;;;4.17;2.93;;;19.40;99.90;;;;;;5003152;28;20420;-78
2023/09/25 10:50:40;;;;;;;4.47;3.43;;;19.50;99.90;;;;;;4996694;28;20780;-77
2023/09/25 10:53:07;;;;;;;3.83;2.93;;;19.60;99.90;;;;;;5023232;28;21009;-78
2023/09/25 10:55:34;;;;;;;4.33;3.30;;;19.70;99.90;;;;;;5015924;28;20987;-75
2023/09/25 10:58:01;;;;;;;3.87;3.03;;;19.70;99.90;;;;;;5024292;28;20438;-75
2023/09/25 11:00:27;;;;;;;4.33;3.43;;;19.80;99.90;;;;;;4999203;28;20466;-76
2023/09/25 11:02:53;;;;;;;5.43;3.37;;;19.90;99.90;;;;;;5021501;28;20454;-77
2023/09/25 11:05:21;;;;;;;5.70;3.10;;;19.90;99.90;;;;;;5015393;28;20513;-76
2023/09/25 11:07:47;;;;;;;3.97;3.00;;;20.00;99.90;;;;;;5022361;28;20173;-76
2023/09/25 11:10:15;;;;;;;4.33;3.00;;;20.00;99.90;;;;;;5017664;28;20503;-76
2023/09/25 11:12:41;;;;;;;3.50;2.80;;;20.20;99.20;;;;;;4988665;28;20443;-76
2023/09/25 11:15:11;;;;;;;4.80;3.43;;;20.30;99.10;;;;;;5020007;28;20875;-78
2023/09/25 11:17:40;;;;;;;4.57;2.93;;;20.30;99.40;;;;;;4999098;28;20193;-76
2023/09/25 11:20:19;;;;;;;3.47;3.10;;;20.40;99.60;;;;;;4998570;28;20432;-75
2023/09/25 11:22:49;;;;;;;4.47;3.00;;;20.40;99.90;;;;;;5018455;28;20406;-75
2023/09/25 11:25:16;;;;;;;4.43;3.57;;;20.50;99.90;;;;;;5008965;28;20585;-75
2023/09/25 11:27:55;;;;;;;4.27;2.80;;;20.60;99.50;;;;;;5014910;28;20419;-74
2023/09/25 11:30:23;;;;;;;4.90;4.20;;;20.70;99.00;;;;;;4999876;28;21184;-75
2023/09/25 11:32:50;;;;;;;5.03;3.80;;;20.70;98.90;;;;;;5012693;28;20456;-75
2023/09/25 11:35:20;;;;;;;3.90;3.27;;;20.70;98.80;;;;;;5002798;28;21011;-76
2023/09/25 11:37:59;;;;;;;5.80;3.20;;;20.80;99.40;;;;;;5001048;28;20476;-76
2023/09/25 11:40:30;;;;;;;5.50;3.40;;;20.90;99.70;;;;;;5029864;28;20431;-75
2023/09/25 11:42:56;;;;;;;5.10;3.40;;;21.10;99.40;;;;;;5016628;28;20442;-76
2023/09/25 11:45:26;;;;;;;5.60;3.87;;;21.20;99.40;;;;;;4996714;28;20466;-75
2023/09/25 11:47:52;;;;;;;4.70;3.30;;;21.40;99.40;;;;;;5021799;28;20400;-76
2023/09/25 11:50:18;;;;;;;4.33;3.10;;;21.60;99.10;;;;;;5004047;28;20435;-76
2023/09/25 11:52:46;;;;;;;3.67;3.23;;;21.90;99.30;;;;;;5018250;28;20435;-79
2023/09/25 11:55:13;;;;;;;6.13;2.90;;;22.50;99.80;;;;;;5029716;28;20440;-77
2023/09/25 11:57:42;;;;;;;3.70;3.10;;;23.60;98.90;;;;;;5007764;28;20463;-77
2023/09/25 12:00:09;;;;;;;4.90;3.30;;;24.70;97.00;;;;;;5018889;28;20424;-76
2023/09/25 12:02:36;;;;;;;4.40;3.47;;;25.80;95.70;;;;;;5022880;28;20424;-76
2023/09/25 12:05:03;;;;;;;6.20;3.57;;;26.80;93.30;;;;;;5027055;28;20501;-77
2023/09/25 12:07:32;;;;;;;6.27;3.20;;;27.60;88.70;;;;;;5021529;28;20435;-76
2023/09/25 12:09:59;;;;;;;3.70;3.23;;;28.40;83.10;;;;;;5019239;28;20458;-76
2023/09/25 12:12:25;;;;;;;6.30;3.30;;;28.90;78.10;;;;;;5016775;28;20412;-76
2023/09/25 12:14:56;;;;;;;5.40;3.60;;;29.30;77.10;;;;;;5018149;28;21016;-76
2023/09/25 12:17:23;;;;;;;5.40;3.27;;;29.50;72.00;;;;;;4999297;28;20232;-75
2023/09/25 12:19:48;;;;;;;4.00;3.30;;;29.80;69.20;;;;;;5019538;28;20455;-76
2023/09/25 12:22:14;;;;;;;4.60;3.17;;;30.20;66.80;;;;;;5018640;28;21253;-77
2023/09/25 12:24:40;;;;;;;4.50;3.03;;;30.60;66.10;;;;;;5018754;28;20699;-76
2023/09/25 12:27:05;;;;;;;6.60;3.60;;;31.00;64.60;;;;;;5023471;28;20645;-76
2023/09/25 12:29:31;;;;;;;4.80;3.30;;;31.30;62.20;;;;;;5025548;28;20189;-76
2023/09/25 12:31:56;;;;;;;3.70;3.23;;;31.60;59.90;;;;;;5015654;28;21643;-77
2023/09/25 12:34:22;;;;;;;4.93;3.00;;;32.00;58.80;;;;;;5015924;28;20304;-77
2023/09/25 12:36:48;;;;;;;3.90;3.10;;;32.30;57.50;;;;;;5014486;28;20221;-74
2023/09/25 12:39:16;;;;;;;3.83;2.93;;;32.50;55.70;;;;;;5019571;28;20177;-74
2023/09/25 12:41:42;;;;;;;3.60;3.10;;;32.70;55.00;;;;;;5020252;28;21497;-75
2023/09/25 12:44:09;;;;;;;5.00;3.17;;;32.80;55.00;;;;;;5019042;28;20876;-76